createdAt,value
2023-03-02T00:01:49.605Z,3.77
2023-03-02T00:04:21.571Z,3.72
2023-03-02T00:06:50.943Z,3.73
2023-03-02T00:09:20.457Z,3.74
2023-03-02T00:11:48.901Z,3.75
2023-03-02T00:14:16.921Z,3.77
2023-03-02T00:16:44.829Z,3.74
2023-03-02T00:19:12.741Z,3.77
2023-03-02T00:21:41.292Z,3.76
2023-03-02T00:24:09.851Z,3.75
2023-03-02T00:26:39.197Z,3.72
2023-03-02T00:29:07.059Z,3.71
2023-03-02T00:31:35.272Z,3.67
2023-03-02T00:34:03.223Z,3.67
2023-03-02T00:36:31.199Z,3.66
2023-03-02T00:38:59.356Z,3.64
2023-03-02T00:41:27.282Z,3.65
2023-03-02T00:43:56.877Z,3.63
2023-03-02T00:46:26.096Z,3.64
2023-03-02T00:48:54.163Z,3.63
2023-03-02T00:51:22.460Z,3.64
2023-03-02T00:53:50.406Z,3.61
2023-03-02T00:56:18.410Z,3.64
2023-03-02T00:58:50.275Z,3.66
2023-03-02T01:01:19.589Z,3.68
2023-03-02T01:03:51.347Z,3.72
2023-03-02T01:06:22.180Z,3.72
2023-03-02T01:08:50.678Z,3.70
2023-03-02T01:11:20.099Z,3.74
2023-03-02T01:13:48.494Z,3.71
2023-03-02T01:16:17.053Z,3.73
2023-03-02T01:18:46.378Z,3.66
2023-03-02T01:21:16.775Z,3.73
2023-03-02T01:23:44.897Z,3.70
2023-03-02T01:26:12.808Z,3.70
2023-03-02T01:28:40.735Z,3.71
2023-03-02T01:31:08.644Z,3.71
2023-03-02T01:33:36.692Z,3.73
2023-03-02T01:36:06.750Z,3.73
2023-03-02T01:38:34.754Z,3.75
2023-03-02T01:41:02.710Z,3.71
2023-03-02T01:43:30.741Z,3.73
2023-03-02T01:46:02.694Z,3.73
2023-03-02T01:48:48.098Z,3.75
2023-03-02T01:51:24.748Z,3.78
2023-03-02T01:53:55.984Z,3.80
2023-03-02T01:56:31.383Z,3.77
2023-03-02T01:59:03.486Z,3.77
2023-03-02T02:01:33.515Z,3.77
2023-03-02T02:04:01.776Z,3.76
2023-03-02T02:06:35.882Z,3.76
2023-03-02T02:09:07.028Z,3.74
2023-03-02T02:11:35.381Z,3.70
2023-03-02T02:14:04.183Z,3.67
2023-03-02T02:16:34.401Z,3.70
2023-03-02T02:19:04.041Z,3.69
2023-03-02T02:21:33.375Z,3.61
2023-03-02T02:24:10.464Z,3.57
2023-03-02T02:26:43.575Z,3.57
2023-03-02T02:29:15.304Z,3.54
2023-03-02T02:31:48.307Z,3.51
2023-03-02T02:34:23.200Z,3.46
2023-03-02T02:36:57.286Z,3.43
2023-03-02T02:39:29.978Z,3.39
2023-03-02T02:42:01.781Z,3.35
2023-03-02T02:44:30.847Z,3.34
2023-03-02T02:46:59.124Z,3.30
2023-03-02T02:49:31.990Z,3.26
2023-03-02T02:52:00.496Z,3.24
2023-03-02T02:54:29.812Z,3.17
2023-03-02T02:57:01.685Z,3.17
2023-03-02T02:59:34.091Z,3.15
2023-03-02T03:02:03.105Z,3.10
2023-03-02T03:04:33.042Z,3.07
2023-03-02T03:07:02.928Z,3.03
2023-03-02T03:09:32.127Z,3.00
2023-03-02T03:12:05.265Z,2.99
2023-03-02T03:15:02.649Z,2.95
2023-03-02T03:17:31.469Z,2.91
2023-03-02T03:20:06.501Z,2.92
2023-03-02T03:22:38.277Z,2.88
2023-03-02T03:25:08.614Z,2.85
2023-03-02T03:27:38.149Z,2.81
2023-03-02T03:30:07.813Z,2.73
2023-03-02T03:32:36.908Z,2.73
2023-03-02T03:35:08.825Z,2.70
2023-03-02T03:37:37.097Z,2.64
2023-03-02T03:40:06.872Z,2.62
2023-03-02T03:42:35.256Z,2.62
2023-03-02T03:45:05.129Z,2.58
2023-03-02T03:47:34.942Z,2.57
2023-03-02T03:50:04.763Z,2.53
2023-03-02T03:52:32.926Z,2.50
2023-03-02T03:55:11.328Z,2.51
2023-03-02T03:57:39.715Z,2.48
2023-03-02T04:00:34.693Z,2.44
2023-03-02T04:03:08.230Z,2.43
2023-03-02T04:05:36.184Z,2.40
2023-03-02T04:08:05.190Z,2.38
2023-03-02T04:10:33.992Z,2.34
2023-03-02T04:13:03.181Z,2.31
2023-03-02T04:15:31.700Z,2.31
2023-03-02T04:18:02.229Z,2.27
2023-03-02T04:20:31.770Z,2.24
2023-03-02T04:23:00.808Z,2.22
2023-03-02T04:25:30.847Z,2.19
2023-03-02T04:28:04.162Z,2.20
2023-03-02T04:30:37.054Z,2.17
2023-03-02T04:33:06.564Z,2.14
2023-03-02T04:35:36.306Z,2.16
2023-03-02T04:38:05.401Z,2.15
2023-03-02T04:40:33.446Z,2.14
2023-03-02T04:43:01.387Z,2.14
2023-03-02T04:45:55.490Z,2.16
2023-03-02T04:48:25.593Z,2.15
2023-03-02T04:50:53.701Z,2.16
2023-03-02T04:53:21.694Z,2.12
2023-03-02T04:55:50.059Z,2.12
2023-03-02T04:58:17.970Z,2.12
2023-03-02T05:00:45.951Z,2.11
2023-03-02T05:03:13.881Z,2.08
2023-03-02T05:05:43.174Z,2.05
2023-03-02T05:08:11.153Z,2.04
2023-03-02T05:10:39.093Z,2.05
2023-03-02T05:13:07.340Z,2.04
2023-03-02T05:15:37.537Z,2.02
2023-03-02T05:18:07.325Z,2.03
2023-03-02T05:20:39.693Z,2.02
2023-03-02T05:23:10.367Z,1.97
2023-03-02T05:25:39.400Z,1.96
2023-03-02T05:28:07.381Z,1.99
2023-03-02T05:30:37.715Z,1.94
2023-03-02T05:33:06.213Z,1.93
2023-03-02T05:35:34.310Z,1.93
2023-03-02T05:38:02.304Z,1.89
2023-03-02T05:40:31.679Z,1.90
2023-03-02T05:43:00.387Z,1.87
2023-03-02T05:45:30.688Z,1.86
2023-03-02T05:47:58.940Z,1.85
2023-03-02T05:50:26.942Z,1.81
2023-03-02T05:52:55.034Z,1.80
2023-03-02T05:55:23.017Z,1.77
2023-03-02T05:57:53.136Z,1.73
2023-03-02T06:00:22.367Z,1.73
2023-03-02T06:02:50.434Z,1.71
2023-03-02T06:05:21.828Z,1.68
2023-03-02T06:07:49.864Z,1.67
2023-03-02T06:10:19.128Z,1.64
2023-03-02T06:12:47.113Z,1.61
2023-03-02T06:15:16.422Z,1.59
2023-03-02T06:17:45.597Z,1.59
2023-03-02T06:20:14.578Z,1.57
2023-03-02T06:22:45.272Z,1.55
2023-03-02T06:25:15.210Z,1.53
2023-03-02T06:27:43.874Z,1.54
2023-03-02T06:30:15.504Z,1.54
2023-03-02T06:32:46.030Z,1.55
2023-03-02T06:35:14.735Z,1.56
2023-03-02T06:37:44.231Z,1.56
2023-03-02T06:40:16.473Z,1.57
2023-03-02T06:42:44.436Z,1.59
2023-03-02T06:45:14.242Z,1.61
2023-03-02T06:47:42.269Z,1.62
2023-03-02T06:50:12.938Z,1.63
2023-03-02T06:52:40.859Z,1.67
2023-03-02T06:55:09.703Z,1.68
2023-03-02T06:57:37.634Z,1.72
2023-03-02T07:00:10.182Z,1.74
2023-03-02T07:02:38.760Z,1.75
2023-03-02T07:05:07.951Z,1.78
2023-03-02T07:07:37.331Z,1.79
2023-03-02T07:10:05.950Z,1.82
2023-03-02T07:12:33.995Z,1.85
2023-03-02T07:15:02.035Z,1.90
2023-03-02T07:17:29.938Z,1.95
2023-03-02T07:19:58.018Z,1.96
2023-03-02T07:22:26.085Z,1.99
2023-03-02T07:24:55.395Z,2.05
2023-03-02T07:27:23.362Z,2.10
2023-03-02T07:29:51.262Z,2.14
2023-03-02T07:32:19.341Z,2.19
2023-03-02T07:34:47.312Z,2.26
2023-03-02T07:37:15.260Z,2.33
2023-03-02T07:39:43.319Z,2.33
2023-03-02T07:42:13.376Z,2.35
2023-03-02T07:44:43.265Z,2.38
2023-03-02T07:47:11.302Z,2.42
2023-03-02T07:49:39.401Z,2.50
2023-03-02T07:52:07.582Z,2.55
2023-03-02T07:54:35.597Z,2.57
2023-03-02T07:57:03.606Z,2.61
2023-03-02T07:59:32.911Z,2.68
2023-03-02T08:02:01.019Z,2.75
2023-03-02T08:04:28.991Z,2.82
2023-03-02T08:06:56.920Z,2.84
2023-03-02T08:09:24.816Z,2.89
2023-03-02T08:11:52.919Z,2.94
2023-03-02T08:14:20.843Z,2.99
2023-03-02T08:16:52.247Z,3.05
2023-03-02T08:19:20.552Z,3.13
2023-03-02T08:21:48.532Z,3.17
2023-03-02T08:24:16.619Z,3.21
2023-03-02T08:26:44.659Z,3.27
2023-03-02T08:29:12.941Z,3.33
2023-03-02T08:31:40.922Z,3.38
2023-03-02T08:34:10.281Z,3.50
2023-03-02T08:36:38.189Z,3.59
2023-03-02T08:39:06.116Z,3.63
2023-03-02T08:41:35.183Z,3.69
2023-03-02T08:44:03.280Z,3.81
2023-03-02T08:46:31.582Z,3.88
2023-03-02T08:48:59.478Z,3.96
2023-03-02T08:51:29.298Z,4.06
2023-03-02T08:53:57.383Z,4.15
2023-03-02T08:56:27.069Z,4.23
2023-03-02T08:58:56.188Z,4.30
2023-03-02T09:01:26.528Z,4.39
2023-03-02T09:03:54.456Z,4.49
2023-03-02T09:06:22.395Z,4.48
2023-03-02T09:08:51.783Z,4.53
2023-03-02T09:11:20.252Z,4.64
2023-03-02T09:13:48.192Z,4.69
2023-03-02T09:16:17.286Z,4.73
2023-03-02T09:18:45.262Z,4.84
2023-03-02T09:21:13.201Z,4.86
2023-03-02T09:23:41.148Z,4.86
2023-03-02T09:26:10.654Z,4.98
2023-03-02T09:28:39.764Z,5.03
2023-03-02T09:31:09.412Z,5.12
2023-03-02T09:33:37.333Z,5.21
2023-03-02T09:36:11.567Z,5.34
2023-03-02T09:38:39.571Z,5.43
2023-03-02T09:41:35.086Z,5.50
2023-03-02T09:44:09.663Z,5.43
2023-03-02T09:46:45.326Z,5.63
2023-03-02T09:49:23.384Z,5.77
2023-03-02T09:52:03.487Z,5.94
2023-03-02T09:54:32.355Z,6.08
2023-03-02T09:57:02.538Z,6.13
2023-03-02T09:59:34.054Z,6.41
2023-03-02T10:02:06.301Z,6.43
2023-03-02T10:04:40.156Z,6.74
2023-03-02T10:07:14.035Z,6.73
2023-03-02T10:09:42.628Z,6.88
2023-03-02T10:12:30.032Z,6.93
2023-03-02T10:15:02.997Z,7.05
2023-03-02T10:17:41.568Z,7.05
2023-03-02T10:20:15.641Z,7.02
2023-03-02T10:22:49.531Z,6.88
2023-03-02T10:25:38.555Z,7.09
2023-03-02T10:28:20.434Z,6.88
2023-03-02T10:30:52.147Z,7.09
2023-03-02T10:33:22.275Z,7.00
2023-03-02T10:35:52.888Z,6.88
2023-03-02T10:38:22.825Z,7.04
2023-03-02T10:40:57.082Z,6.92
2023-03-02T10:43:31.741Z,6.95
2023-03-02T10:46:01.535Z,6.94
2023-03-02T10:48:29.910Z,7.01
2023-03-02T10:51:00.434Z,7.13
2023-03-02T10:53:29.120Z,7.28
2023-03-02T10:55:57.168Z,7.54
2023-03-02T10:58:31.325Z,7.50
2023-03-02T11:01:01.816Z,7.37
2023-03-02T11:03:30.801Z,7.28
2023-03-02T11:06:00.513Z,7.39
2023-03-02T11:08:29.987Z,7.31
2023-03-02T11:11:00.951Z,7.53
2023-03-02T11:13:32.654Z,7.71
2023-03-02T11:16:02.214Z,7.58
2023-03-02T11:18:35.840Z,7.62
2023-03-02T11:21:06.680Z,7.70
2023-03-02T11:23:42.034Z,7.89
2023-03-02T11:26:18.076Z,8.21
2023-03-02T11:28:52.541Z,8.25
2023-03-02T11:31:29.495Z,8.33
2023-03-02T11:34:15.672Z,8.58
2023-03-02T11:36:53.750Z,8.40
2023-03-02T11:39:28.095Z,8.42
2023-03-02T11:41:56.059Z,8.31
2023-03-02T11:44:27.521Z,8.61
2023-03-02T11:47:00.610Z,8.75
2023-03-02T11:49:38.033Z,8.87
2023-03-02T11:52:33.016Z,8.91
2023-03-02T11:55:05.622Z,9.17
2023-03-02T11:57:39.327Z,8.93
2023-03-02T12:00:28.271Z,9.24
2023-03-02T12:03:05.256Z,9.31
2023-03-02T12:05:36.684Z,9.51
2023-03-02T12:08:06.688Z,9.79
2023-03-02T12:10:39.829Z,9.97
2023-03-02T12:13:26.678Z,10.40
2023-03-02T12:15:56.453Z,10.50
2023-03-02T12:18:49.090Z,10.24
2023-03-02T12:21:19.790Z,10.90
2023-03-02T12:24:00.711Z,10.94
2023-03-02T12:26:36.323Z,11.13
2023-03-02T12:29:22.620Z,11.38
2023-03-02T12:31:55.041Z,11.51
2023-03-02T12:34:37.784Z,11.63
2023-03-02T12:37:13.715Z,11.92
2023-03-02T12:40:10.606Z,11.87
2023-03-02T12:42:50.853Z,12.01
2023-03-02T12:45:44.870Z,11.69
2023-03-02T12:48:26.241Z,11.75
2023-03-02T12:51:00.567Z,12.10
2023-03-02T12:53:29.978Z,12.14
2023-03-02T12:55:58.281Z,12.19
2023-03-02T12:58:28.714Z,12.52
2023-03-02T13:00:58.446Z,12.85
2023-03-02T13:03:29.968Z,12.99
2023-03-02T13:06:05.333Z,12.73
2023-03-02T13:08:33.720Z,13.05
2023-03-02T13:11:03.120Z,13.35
2023-03-02T13:13:37.987Z,13.73
2023-03-02T13:16:08.294Z,13.04
2023-03-02T13:18:39.981Z,13.07
2023-03-02T13:21:12.061Z,13.62
2023-03-02T13:23:47.198Z,13.77
2023-03-02T13:26:29.145Z,13.51
2023-03-02T13:29:06.020Z,13.85
2023-03-02T13:31:35.446Z,13.73
2023-03-02T13:34:04.816Z,14.02
2023-03-02T13:36:37.611Z,13.80
2023-03-02T13:39:09.097Z,13.54
2023-03-02T13:41:40.675Z,13.62
2023-03-02T13:44:19.795Z,13.67
2023-03-02T13:46:48.539Z,13.80
2023-03-02T13:49:28.120Z,13.36
2023-03-02T13:52:02.170Z,13.24
2023-03-02T13:54:32.697Z,13.62
2023-03-02T13:57:02.502Z,13.75
2023-03-02T13:59:32.291Z,14.05
2023-03-02T14:02:01.171Z,13.53
2023-03-02T14:04:30.552Z,13.30
2023-03-02T14:06:58.620Z,13.36
2023-03-02T14:09:27.203Z,13.44
2023-03-02T14:11:57.072Z,13.70
2023-03-02T14:14:27.474Z,13.95
2023-03-02T14:16:55.425Z,13.54
2023-03-02T14:19:23.396Z,13.56
2023-03-02T14:21:52.735Z,13.60
2023-03-02T14:24:20.680Z,13.63
2023-03-02T14:26:49.837Z,13.31
2023-03-02T14:29:27.357Z,13.88
2023-03-02T14:31:55.880Z,13.62
2023-03-02T14:34:24.560Z,13.10
2023-03-02T14:36:55.739Z,13.51
2023-03-02T14:39:33.195Z,13.88
2023-03-02T14:42:01.272Z,13.65
2023-03-02T14:44:29.401Z,13.85
2023-03-02T14:46:58.423Z,13.90
2023-03-02T14:49:26.622Z,13.83
2023-03-02T14:52:03.534Z,14.02
2023-03-02T14:54:39.357Z,13.96
2023-03-02T14:57:16.417Z,14.22
2023-03-02T14:59:44.448Z,13.99
2023-03-02T15:02:24.447Z,13.77
2023-03-02T15:04:56.137Z,14.15
2023-03-02T15:07:27.641Z,14.43
2023-03-02T15:09:56.143Z,13.78
2023-03-02T15:12:24.159Z,14.32
2023-03-02T15:14:52.162Z,13.68
2023-03-02T15:17:20.212Z,13.77
2023-03-02T15:19:48.506Z,13.85
2023-03-02T15:22:16.542Z,13.66
2023-03-02T15:24:45.953Z,13.43
2023-03-02T15:27:13.918Z,13.20
2023-03-02T15:29:44.983Z,12.95
2023-03-02T15:32:13.315Z,13.13
2023-03-02T15:34:41.384Z,13.22
2023-03-02T15:37:11.095Z,13.23
2023-03-02T15:39:39.388Z,12.66
2023-03-02T15:42:08.688Z,12.81
2023-03-02T15:44:36.672Z,12.78
2023-03-02T15:47:04.788Z,12.96
2023-03-02T15:49:32.956Z,13.16
2023-03-02T15:52:01.040Z,13.46
2023-03-02T15:54:29.856Z,13.52
2023-03-02T15:56:57.953Z,13.47
2023-03-02T15:59:29.105Z,13.63
2023-03-02T16:01:59.365Z,13.91
2023-03-02T16:04:28.132Z,14.01
2023-03-02T16:06:56.530Z,13.49
2023-03-02T16:09:25.081Z,13.95
2023-03-02T16:11:53.478Z,13.42
2023-03-02T16:14:21.507Z,13.46
2023-03-02T16:16:51.190Z,13.78
2023-03-02T16:19:20.262Z,13.90
2023-03-02T16:21:48.392Z,13.90
2023-03-02T16:24:17.068Z,13.52
2023-03-02T16:26:45.473Z,13.71
2023-03-02T16:29:14.651Z,13.11
2023-03-02T16:31:43.310Z,12.40
2023-03-02T16:34:12.740Z,12.44
2023-03-02T16:36:42.164Z,12.26
2023-03-02T16:39:11.589Z,12.10
2023-03-02T16:41:41.075Z,11.81
2023-03-02T16:44:09.358Z,11.71
2023-03-02T16:46:41.872Z,11.25
2023-03-02T16:49:10.272Z,11.03
2023-03-02T16:51:40.017Z,11.02
2023-03-02T16:54:08.153Z,10.80
2023-03-02T16:56:36.193Z,10.41
2023-03-02T16:59:06.982Z,10.55
2023-03-02T17:01:34.938Z,10.03
2023-03-02T17:04:05.531Z,9.95
2023-03-02T17:06:33.745Z,9.73
2023-03-02T17:09:03.129Z,9.50
2023-03-02T17:11:31.857Z,9.50
2023-03-02T17:13:59.791Z,9.32
2023-03-02T17:16:27.838Z,9.26
2023-03-02T17:18:55.922Z,9.01
2023-03-02T17:21:25.071Z,8.95
2023-03-02T17:23:53.019Z,8.77
2023-03-02T17:26:22.296Z,8.91
2023-03-02T17:28:50.577Z,8.64
2023-03-02T17:31:18.594Z,8.69
2023-03-02T17:33:46.679Z,8.68
2023-03-02T17:36:15.790Z,8.61
2023-03-02T17:38:43.924Z,8.52
2023-03-02T17:41:12.635Z,8.34
2023-03-02T17:43:43.445Z,8.25
2023-03-02T17:46:14.815Z,8.28
2023-03-02T17:48:44.070Z,8.17
2023-03-02T17:51:14.832Z,8.15
2023-03-02T17:53:43.126Z,7.93
2023-03-02T17:56:11.866Z,7.68
2023-03-02T17:58:45.445Z,7.87
2023-03-02T18:01:15.853Z,7.80
2023-03-02T18:03:45.540Z,7.68
2023-03-02T18:06:14.585Z,7.61
2023-03-02T18:08:42.566Z,7.63
2023-03-02T18:11:11.289Z,7.47
2023-03-02T18:13:40.876Z,7.38
2023-03-02T18:16:09.306Z,7.40
2023-03-02T18:18:37.365Z,7.33
2023-03-02T18:21:06.023Z,7.28
2023-03-02T18:23:34.447Z,7.24
2023-03-02T18:26:02.412Z,7.23
2023-03-02T18:28:30.422Z,7.14
2023-03-02T18:31:00.181Z,7.06
2023-03-02T18:33:28.417Z,7.01
2023-03-02T18:35:57.305Z,6.96
2023-03-02T18:38:30.647Z,6.93
2023-03-02T18:40:59.592Z,6.95
2023-03-02T18:43:28.969Z,6.86
2023-03-02T18:45:57.747Z,6.78
2023-03-02T18:48:27.165Z,6.77
2023-03-02T18:50:55.603Z,6.68
2023-03-02T18:53:23.547Z,6.62
2023-03-02T18:55:52.547Z,6.55
2023-03-02T18:58:22.753Z,6.49
2023-03-02T19:00:50.925Z,6.41
2023-03-02T19:03:19.008Z,6.42
2023-03-02T19:05:48.327Z,6.41
2023-03-02T19:08:16.618Z,6.29
2023-03-02T19:10:44.744Z,6.26
2023-03-02T19:13:12.944Z,6.26
2023-03-02T19:15:41.701Z,6.17
2023-03-02T19:18:10.432Z,6.16
2023-03-02T19:20:41.383Z,6.17
2023-03-02T19:23:10.719Z,6.07
2023-03-02T19:25:38.732Z,6.08
2023-03-02T19:28:07.361Z,5.93
2023-03-02T19:30:36.749Z,5.92
2023-03-02T19:33:07.246Z,5.93
2023-03-02T19:35:35.426Z,5.90
2023-03-02T19:38:03.406Z,5.81
2023-03-02T19:40:34.516Z,5.79
2023-03-02T19:43:03.204Z,5.77
2023-03-02T19:45:34.933Z,5.69
2023-03-02T19:48:03.825Z,5.65
2023-03-02T19:50:31.902Z,5.69
2023-03-02T19:53:00.209Z,5.65
2023-03-02T19:55:28.588Z,5.66
2023-03-02T19:58:00.126Z,5.54
2023-03-02T20:00:29.981Z,5.58
2023-03-02T20:02:58.296Z,5.50
2023-03-02T20:05:27.624Z,5.47
2023-03-02T20:07:56.168Z,5.44
2023-03-02T20:10:31.133Z,5.34
2023-03-02T20:13:01.575Z,5.33
2023-03-02T20:15:31.739Z,5.31
2023-03-02T20:18:02.524Z,5.29
2023-03-02T20:20:31.544Z,5.29
2023-03-02T20:23:00.580Z,5.24
2023-03-02T20:25:29.447Z,5.19
2023-03-02T20:27:58.289Z,5.19
2023-03-02T20:30:31.601Z,5.20
2023-03-02T20:33:00.428Z,5.23
2023-03-02T20:35:30.621Z,5.11
2023-03-02T20:38:00.994Z,5.00
2023-03-02T20:40:30.314Z,4.98
2023-03-02T20:42:58.687Z,4.93
2023-03-02T20:45:28.129Z,4.89
2023-03-02T20:47:56.286Z,4.84
2023-03-02T20:50:29.596Z,4.82
2023-03-02T20:52:57.644Z,4.79
2023-03-02T20:55:26.951Z,4.70
2023-03-02T20:57:55.465Z,4.70
2023-03-02T21:00:27.143Z,4.69
2023-03-02T21:02:57.160Z,4.72
2023-03-02T21:05:26.399Z,4.62
2023-03-02T21:07:54.666Z,4.65
2023-03-02T21:10:27.854Z,4.77
2023-03-02T21:12:59.401Z,4.82
2023-03-02T21:15:28.209Z,4.72
2023-03-02T21:17:59.844Z,4.73
2023-03-02T21:20:30.471Z,4.74
2023-03-02T21:22:59.369Z,4.66
2023-03-02T21:25:27.513Z,4.72
2023-03-02T21:27:56.155Z,4.70
2023-03-02T21:30:27.961Z,4.62
2023-03-02T21:32:56.230Z,4.70
2023-03-02T21:35:25.641Z,4.78
2023-03-02T21:37:57.189Z,4.77
2023-03-02T21:40:27.480Z,4.79
2023-03-02T21:42:56.122Z,4.77
2023-03-02T21:45:24.500Z,4.80
2023-03-02T21:47:52.521Z,4.76
2023-03-02T21:50:23.323Z,4.84
2023-03-02T21:52:52.625Z,4.84
2023-03-02T21:55:20.970Z,4.79
2023-03-02T21:57:49.239Z,4.83
2023-03-02T22:00:22.483Z,4.76
2023-03-02T22:02:50.965Z,4.81
2023-03-02T22:05:20.012Z,4.77
2023-03-02T22:07:48.598Z,4.85
2023-03-02T22:10:26.122Z,4.80
2023-03-02T22:12:57.159Z,4.73
2023-03-02T22:15:25.149Z,4.81
2023-03-02T22:17:53.082Z,4.86
2023-03-02T22:20:21.622Z,4.87
2023-03-02T22:22:53.125Z,4.92
2023-03-02T22:25:22.610Z,4.82
2023-03-02T22:27:50.529Z,4.84
2023-03-02T22:30:22.208Z,4.88
2023-03-02T22:32:50.947Z,4.84
2023-03-02T22:35:25.704Z,4.85
2023-03-02T22:38:00.868Z,4.85
2023-03-02T22:40:33.724Z,4.89
2023-03-02T22:43:12.053Z,4.94
2023-03-02T22:45:41.395Z,4.85
2023-03-02T22:48:15.831Z,4.84
2023-03-02T22:50:45.497Z,4.70
2023-03-02T22:53:29.301Z,4.77
2023-03-02T22:56:01.453Z,4.77
2023-03-02T22:58:33.523Z,4.82
2023-03-02T23:01:02.595Z,4.83
2023-03-02T23:03:39.852Z,4.75
2023-03-02T23:06:23.175Z,4.74
2023-03-02T23:08:51.876Z,4.74
2023-03-02T23:11:23.497Z,4.67
2023-03-02T23:13:53.369Z,4.73
2023-03-02T23:16:23.990Z,4.76
2023-03-02T23:18:53.904Z,4.89
2023-03-02T23:21:25.192Z,4.83
2023-03-02T23:23:54.736Z,4.81
2023-03-02T23:26:24.137Z,4.76
2023-03-02T23:28:52.061Z,4.79
2023-03-02T23:31:20.258Z,4.85
2023-03-02T23:33:48.735Z,4.85
2023-03-02T23:36:16.746Z,4.90
2023-03-02T23:38:44.688Z,4.92
2023-03-02T23:41:12.611Z,4.91
2023-03-02T23:43:42.156Z,4.90
2023-03-02T23:46:13.894Z,4.89
2023-03-02T23:48:42.485Z,4.91
2023-03-02T23:51:10.528Z,4.91
2023-03-02T23:53:39.076Z,4.94
2023-03-02T23:56:07.961Z,4.87
2023-03-02T23:58:36.042Z,5.00
